Time;durP1;ratioP1;P1;durP2;ratioP2;P2;SDS_P1;SDS_P2;PMS_P1;PMS_P2;Temp;Humidity;BMP_temperature;BMP_pressure;BME280_temperature;BME280_humidity;BME280_pressure;Samples;Min_cycle;Max_cycle;Signal;HPM_P1;HPM_P2
2020/12/15 00:01:30;;;;;;;4.88;2.30;;;;;;;11.05;70.07;99029.34;4959804;28;20047;-86
2020/12/15 00:03:56;;;;;;;3.40;2.83;;;;;;;11.04;69.98;99033.78;4958064;28;20048;-89
2020/12/15 00:06:23;;;;;;;4.72;2.60;;;;;;;11.04;69.88;99036.44;4960372;29;20409;-86
2020/12/15 00:08:49;;;;;;;4.22;2.67;;;;;;;11.03;69.63;99039.16;4961392;28;20054;-86
2020/12/15 00:11:19;;;;;;;4.28;2.63;;;;;;;11.01;69.43;99023.47;4960765;28;20063;-88
2020/12/15 00:13:49;;;;;;;7.53;2.58;;;;;;;11.00;69.63;99013.91;4961073;28;20055;-88
2020/12/15 00:16:19;;;;;;;4.85;2.70;;;;;;;10.98;69.07;99007.06;4959047;29;20051;-88
2020/12/15 00:18:46;;;;;;;4.90;2.50;;;;;;;10.98;69.67;99005.25;4960130;29;20059;-89
2020/12/15 00:21:22;;;;;;;4.05;2.58;;;;;;;10.94;69.15;99009.03;4959893;29;20062;-89
2020/12/15 00:23:49;;;;;;;4.78;2.58;;;;;;;10.95;69.54;99010.72;4961020;29;20058;-89
2020/12/15 00:26:17;;;;;;;5.10;2.45;;;;;;;10.93;69.52;99002.09;4962339;28;20065;-88
2020/12/15 00:28:48;;;;;;;3.38;2.33;;;;;;;10.91;69.45;98999.56;4963693;29;20062;-88
2020/12/15 00:31:16;;;;;;;4.00;2.75;;;;;;;10.90;69.49;98997.03;4964336;28;20063;-88
2020/12/15 00:33:43;;;;;;;4.30;2.47;;;;;;;10.90;69.53;99002.31;4962030;29;20051;-90
2020/12/15 00:36:22;;;;;;;4.30;2.35;;;;;;;10.87;69.57;98999.91;4964016;28;20051;-90
2020/12/15 00:38:50;;;;;;;4.72;2.22;;;;;;;10.87;69.94;98995.47;4962289;28;20059;-89
2020/12/15 00:41:17;;;;;;;2.60;2.10;;;;;;;10.88;69.81;99006.84;4964092;29;20062;-89
2020/12/15 00:43:44;;;;;;;3.22;2.50;;;;;;;10.88;69.49;98993.69;4963083;28;20066;-87
2020/12/15 00:46:14;;;;;;;2.80;2.30;;;;;;;10.87;69.20;98992.03;4962903;28;20069;-89
2020/12/15 00:48:41;;;;;;;3.20;2.22;;;;;;;10.87;69.50;98989.38;4962363;28;20111;-89
2020/12/15 00:51:21;;;;;;;6.57;2.72;;;;;;;10.86;68.97;98992.94;4962434;29;20051;-88
2020/12/15 00:53:48;;;;;;;2.97;2.17;;;;;;;10.89;69.73;98988.31;4965495;28;20047;-89
2020/12/15 00:56:15;;;;;;;2.53;2.13;;;;;;;10.89;69.57;98996.22;4962561;28;20047;-87
2020/12/15 00:58:43;;;;;;;3.85;2.17;;;;;;;10.89;69.51;98990.97;4964886;28;20055;-87
2020/12/15 01:01:12;;;;;;;5.07;2.65;;;;;;;10.91;69.59;98996.09;4965043;28;20418;-88
2020/12/15 01:03:40;;;;;;;4.25;2.10;;;;;;;10.93;69.66;98986.31;4962097;28;20098;-88
2020/12/15 01:06:07;;;;;;;2.30;1.77;;;;;;;10.93;69.37;98974.00;4964331;28;20051;-87
2020/12/15 01:08:33;;;;;;;3.38;2.38;;;;;;;10.94;69.44;98985.34;4963489;29;20051;-88
2020/12/15 01:11:15;;;;;;;5.88;2.30;;;;;;;10.94;68.88;98986.19;4963459;28;20051;-88
2020/12/15 01:13:42;;;;;;;2.22;1.88;;;;;;;10.95;69.40;98987.88;4961992;28;20414;-87
2020/12/15 01:16:08;;;;;;;5.05;2.15;;;;;;;10.96;69.17;98988.72;4961437;29;20055;-88
2020/12/15 01:18:35;;;;;;;2.50;2.25;;;;;;;10.97;69.28;98981.66;4962439;28;20118;-87
2020/12/15 01:21:04;;;;;;;3.03;2.00;;;;;;;10.95;69.09;98973.84;4961579;29;20059;-87
2020/12/15 01:23:30;;;;;;;4.03;2.25;;;;;;;10.96;69.45;98978.19;4961276;28;20055;-89
2020/12/15 01:25:57;;;;;;;1.85;1.58;;;;;;;10.95;68.98;98972.06;4963440;28;20051;-89
2020/12/15 01:28:23;;;;;;;3.40;1.80;;;;;;;10.97;69.14;98981.66;4962987;28;20055;-87
2020/12/15 01:30:49;;;;;;;2.63;1.92;;;;;;;10.96;69.13;98986.09;4962672;28;20498;-87
2020/12/15 01:33:16;;;;;;;2.75;2.10;;;;;;;10.95;68.70;98977.34;4961936;28;20130;-88
2020/12/15 01:35:43;;;;;;;2.90;1.90;;;;;;;10.95;68.81;98976.50;4962183;28;20055;-89
2020/12/15 01:38:09;;;;;;;2.35;1.88;;;;;;;10.94;68.67;98977.44;4963211;28;20053;-89
2020/12/15 01:40:36;;;;;;;3.28;2.22;;;;;;;10.94;68.59;98972.19;4961182;29;20056;-89
2020/12/15 01:43:02;;;;;;;2.90;1.88;;;;;;;10.93;68.76;98986.31;4963304;28;20134;-87
2020/12/15 01:45:28;;;;;;;3.35;1.92;;;;;;;10.94;68.70;98985.34;4962530;28;20055;-87
2020/12/15 01:47:54;;;;;;;4.90;2.55;;;;;;;10.93;68.77;98983.66;4963992;28;20059;-87
2020/12/15 01:50:20;;;;;;;2.90;2.17;;;;;;;10.92;68.87;98985.44;4961743;28;20054;-89
2020/12/15 01:52:47;;;;;;;2.13;1.85;;;;;;;10.93;68.76;98983.66;4961651;28;20059;-88
2020/12/15 01:55:16;;;;;;;3.72;2.50;;;;;;;10.91;68.20;98982.91;4961494;28;20052;-89
2020/12/15 01:57:44;;;;;;;6.53;2.55;;;;;;;10.90;68.16;98982.09;4962092;29;20055;-88
2020/12/15 02:00:10;;;;;;;3.80;2.42;;;;;;;10.91;68.31;98990.81;4962954;29;20051;-88
2020/12/15 02:02:41;;;;;;;4.95;2.25;;;;;;;10.90;68.05;98983.88;4961583;29;20065;-88
2020/12/15 02:05:08;;;;;;;3.22;2.05;;;;;;;10.91;68.31;98980.28;4962125;29;20043;-88
2020/12/15 02:07:34;;;;;;;3.63;2.00;;;;;;;10.89;68.18;98976.94;4962653;28;20055;-87
2020/12/15 02:10:03;;;;;;;2.85;2.20;;;;;;;10.89;68.14;98972.53;4962827;28;20057;-87
2020/12/15 02:12:30;;;;;;;4.70;2.30;;;;;;;10.88;68.20;98972.63;4963061;28;20048;-87
2020/12/15 02:14:56;;;;;;;2.88;2.50;;;;;;;10.86;68.25;98970.09;4963019;28;20053;-88
2020/12/15 02:17:22;;;;;;;5.45;2.40;;;;;;;10.85;68.21;98967.56;4962554;28;20059;-90
2020/12/15 02:20:00;;;;;;;5.45;2.63;;;;;;;10.78;67.38;98965.38;4964207;28;20081;-90
2020/12/15 02:22:28;;;;;;;3.60;2.90;;;;;;;10.81;68.36;98969.59;4963379;28;20055;-89
2020/12/15 02:24:54;;;;;;;3.20;2.40;;;;;;;10.77;68.05;98962.88;4961576;29;20084;-89
2020/12/15 02:27:22;;;;;;;3.42;2.47;;;;;;;10.74;67.96;98960.44;4961116;28;20055;-89
2020/12/15 02:29:48;;;;;;;3.88;2.58;;;;;;;10.69;67.90;98966.88;4961820;29;20081;-88
2020/12/15 02:32:17;;;;;;;3.53;2.47;;;;;;;10.66;68.04;98966.25;4961233;28;20047;-88
2020/12/15 02:34:44;;;;;;;7.10;2.92;;;;;;;10.62;68.25;98970.03;4959592;28;20051;-87
2020/12/15 02:37:10;;;;;;;2.88;2.47;;;;;;;10.60;68.27;98969.28;4961105;29;20051;-88
2020/12/15 02:39:36;;;;;;;4.70;2.53;;;;;;;10.57;68.40;98977.44;4960215;29;20061;-87
2020/12/15 02:42:04;;;;;;;4.45;2.65;;;;;;;10.51;68.36;98979.50;4961719;29;20110;-88
2020/12/15 02:44:30;;;;;;;4.25;2.50;;;;;;;10.50;68.30;98977.84;4963461;28;20053;-87
2020/12/15 02:46:57;;;;;;;2.72;2.45;;;;;;;10.48;68.39;98974.47;4961069;29;20051;-89
2020/12/15 02:49:23;;;;;;;4.82;2.90;;;;;;;10.45;68.45;98974.69;4961844;28;20082;-89
2020/12/15 02:51:50;;;;;;;4.13;2.72;;;;;;;10.41;68.59;98975.81;4961170;28;20395;-90
2020/12/15 02:54:17;;;;;;;3.28;2.67;;;;;;;10.38;68.73;98981.28;4959024;28;20063;-88
2020/12/15 02:56:43;;;;;;;5.78;2.78;;;;;;;10.35;68.84;98984.97;4961773;28;20059;-89
2020/12/15 02:59:10;;;;;;;3.47;2.20;;;;;;;10.33;68.92;98991.28;4957867;28;20055;-91
2020/12/15 03:01:48;;;;;;;5.85;2.70;;;;;;;10.27;68.76;98995.16;4961505;29;20096;-90
2020/12/15 03:04:14;;;;;;;5.45;2.50;;;;;;;10.24;69.04;98985.69;4959482;28;20047;-89
2020/12/15 03:06:42;;;;;;;3.88;2.53;;;;;;;10.20;69.08;98989.47;4960142;28;20135;-89
2020/12/15 03:09:09;;;;;;;3.83;2.80;;;;;;;10.16;69.27;98993.25;4960550;28;20050;-90
2020/12/15 03:11:37;;;;;;;3.20;2.42;;;;;;;10.12;69.88;98995.28;4960526;28;20051;-91
2020/12/15 03:14:04;;;;;;;3.17;2.25;;;;;;;10.09;69.59;98992.84;4961604;28;20052;-92
2020/12/15 03:16:30;;;;;;;2.80;2.10;;;;;;;10.06;69.97;98989.59;4961934;28;20134;-92
2020/12/15 03:18:57;;;;;;;3.33;2.53;;;;;;;10.03;70.10;98990.63;4961075;28;20055;-89
2020/12/15 03:21:24;;;;;;;3.15;2.70;;;;;;;10.01;69.95;98995.13;4962199;29;20048;-90
2020/12/15 03:23:51;;;;;;;3.35;2.67;;;;;;;9.98;70.29;98995.38;4960764;28;20119;-92
2020/12/15 03:26:18;;;;;;;4.75;2.40;;;;;;;9.96;70.31;98998.09;4960333;28;20061;-90
2020/12/15 03:28:44;;;;;;;5.43;2.28;;;;;;;9.95;70.54;98996.41;4961122;29;20062;-88
2020/12/15 03:31:10;;;;;;;4.25;2.85;;;;;;;9.94;70.56;99007.84;4959395;28;20063;-90
2020/12/15 03:33:37;;;;;;;4.45;2.65;;;;;;;9.94;70.80;99009.66;4960443;28;20501;-89
2020/12/15 03:36:03;;;;;;;4.10;3.05;;;;;;;9.93;70.74;99006.19;4960156;28;20054;-90
2020/12/15 03:38:29;;;;;;;5.20;2.88;;;;;;;9.94;70.85;99007.03;4960052;28;20055;-89
2020/12/15 03:40:55;;;;;;;4.28;2.58;;;;;;;9.93;70.94;99003.53;4961897;28;20059;-90
2020/12/15 03:43:22;;;;;;;3.85;3.03;;;;;;;9.93;71.04;99000.91;4960171;28;20055;-89
2020/12/15 03:45:48;;;;;;;4.30;2.95;;;;;;;9.93;71.09;98985.16;4961886;28;20062;-89
2020/12/15 03:48:14;;;;;;;3.83;2.70;;;;;;;9.94;71.14;98989.44;4958618;29;20134;-91
2020/12/15 03:50:41;;;;;;;8.82;2.60;;;;;;;9.94;71.36;98986.81;4961485;28;20146;-91
2020/12/15 03:53:07;;;;;;;2.95;2.55;;;;;;;9.95;71.64;98995.56;4961602;28;20085;-90
2020/12/15 03:55:33;;;;;;;4.10;2.85;;;;;;;9.94;71.45;98986.00;4958938;28;20051;-91
2020/12/15 03:57:59;;;;;;;3.53;2.65;;;;;;;9.96;71.61;98987.56;4961721;28;20051;-89
2020/12/15 04:00:28;;;;;;;4.15;3.10;;;;;;;9.94;71.83;98984.19;4960400;28;20055;-89
2020/12/15 04:02:54;;;;;;;4.00;3.00;;;;;;;9.96;71.51;98984.09;4960732;28;20054;-91
2020/12/15 04:05:20;;;;;;;4.70;3.15;;;;;;;9.96;71.49;98977.06;4961269;28;20098;-89
2020/12/15 04:07:48;;;;;;;3.63;2.72;;;;;;;9.96;71.57;98977.06;4959789;29;20058;-89
2020/12/15 04:10:19;;;;;;;3.97;3.03;;;;;;;9.97;71.76;98962.97;4961978;28;20077;-89
2020/12/15 04:12:53;;;;;;;6.25;2.83;;;;;;;9.97;71.83;98955.06;4959609;29;20193;-89
2020/12/15 04:15:20;;;;;;;5.95;2.80;;;;;;;9.98;71.86;98961.19;4958921;28;20047;-89
2020/12/15 04:17:48;;;;;;;4.18;2.90;;;;;;;9.97;72.01;98960.34;4959754;28;20122;-90
2020/12/15 04:20:15;;;;;;;5.13;2.90;;;;;;;9.98;72.03;98959.38;4960599;29;20055;-90
2020/12/15 04:22:42;;;;;;;5.40;3.13;;;;;;;9.99;72.04;98960.22;4960525;28;20516;-90
2020/12/15 04:25:09;;;;;;;3.70;2.58;;;;;;;9.99;71.91;98971.56;4958442;28;20051;-91
2020/12/15 04:27:36;;;;;;;3.40;2.70;;;;;;;10.00;72.19;98975.91;4960565;28;20055;-90
2020/12/15 04:30:08;;;;;;;3.15;2.80;;;;;;;10.00;72.14;98981.16;4961654;28;20125;-90
2020/12/15 04:32:34;;;;;;;5.00;3.28;;;;;;;10.02;72.24;98989.78;4960590;29;20055;-90
2020/12/15 04:35:01;;;;;;;3.80;3.00;;;;;;;10.00;72.24;99011.88;4960381;28;20051;-89
2020/12/15 04:37:27;;;;;;;4.88;3.30;;;;;;;9.99;72.29;99011.00;4959855;29;20487;-90
2020/12/15 04:39:54;;;;;;;4.43;3.25;;;;;;;9.97;72.38;99012.06;4960969;28;20086;-92
2020/12/15 04:42:22;;;;;;;6.15;2.88;;;;;;;9.92;72.63;99036.03;4960785;28;20066;-89
2020/12/15 04:44:52;;;;;;;4.00;3.00;;;;;;;9.92;72.46;99025.53;4959227;28;20115;-91
2020/12/15 04:47:28;;;;;;;3.40;3.00;;;;;;;9.91;72.64;99026.47;4959075;28;20051;-89
2020/12/15 04:50:01;;;;;;;3.50;3.10;;;;;;;9.90;72.63;99023.00;4959401;28;20070;-91
2020/12/15 04:53:02;;;;;;;4.22;3.20;;;;;;;9.86;72.88;99012.78;4960065;28;20120;-91
2020/12/15 04:55:28;;;;;;;4.65;3.55;;;;;;;9.90;72.66;99014.25;4960320;29;20047;-91
2020/12/15 04:57:59;;;;;;;3.75;3.30;;;;;;;9.88;73.09;99011.72;4958344;28;20055;-90
2020/12/15 05:00:27;;;;;;;5.95;2.97;;;;;;;9.89;72.79;99007.31;4960783;28;20134;-90
2020/12/15 05:02:58;;;;;;;4.00;3.10;;;;;;;9.85;72.87;99011.94;4959406;29;20074;-90
2020/12/15 05:05:25;;;;;;;5.20;3.65;;;;;;;9.84;72.86;99012.91;4959364;28;20055;-90
2020/12/15 05:08:01;;;;;;;4.22;3.30;;;;;;;9.81;73.09;99010.47;4958551;29;20055;-90
2020/12/15 05:10:35;;;;;;;5.75;3.70;;;;;;;9.80;72.73;99023.72;4959674;28;20546;-92
2020/12/15 05:13:04;;;;;;;5.40;3.42;;;;;;;9.75;73.28;99011.72;4962171;28;20141;-92
2020/12/15 05:15:32;;;;;;;5.28;3.78;;;;;;;9.74;73.18;99020.53;4963922;28;20106;-90
2020/12/15 05:18:04;;;;;;;4.25;3.28;;;;;;;9.71;73.56;99018.09;4962415;28;20063;-91
2020/12/15 05:20:32;;;;;;;7.15;3.45;;;;;;;9.70;73.45;99024.31;4961992;28;20058;-89
2020/12/15 05:22:58;;;;;;;5.43;3.30;;;;;;;9.69;73.37;99019.16;4964087;29;20062;-89
2020/12/15 05:25:27;;;;;;;4.60;3.58;;;;;;;9.68;73.57;99028.81;4963672;28;20134;-89
2020/12/15 05:27:58;;;;;;;4.55;3.38;;;;;;;9.65;73.58;99035.13;4963183;28;20059;-89
2020/12/15 05:30:25;;;;;;;5.38;3.70;;;;;;;9.65;73.40;99029.03;4961648;28;20058;-91
2020/12/15 05:32:56;;;;;;;6.75;4.28;;;;;;;9.63;73.65;99036.16;4963790;28;20062;-91
2020/12/15 05:35:24;;;;;;;5.93;3.88;;;;;;;9.63;73.36;99034.38;4962518;28;20058;-90
2020/12/15 05:38:02;;;;;;;6.80;3.90;;;;;;;9.60;73.81;99041.59;4962458;28;20055;-93
2020/12/15 05:40:28;;;;;;;7.28;3.80;;;;;;;9.61;73.72;99031.00;4964031;28;20118;-90
2020/12/15 05:42:57;;;;;;;6.43;3.72;;;;;;;9.61;73.58;99028.38;4962289;29;20063;-91
2020/12/15 05:45:24;;;;;;;4.57;3.80;;;;;;;9.62;73.79;99034.47;4962297;28;20058;-91
2020/12/15 05:48:00;;;;;;;5.72;3.40;;;;;;;9.60;74.11;99028.47;5015009;23;20492;-92
2020/12/15 05:50:26;;;;;;;7.20;4.03;;;;;;;9.63;73.75;99042.25;5016011;28;20054;-93
2020/12/15 05:52:59;;;;;;;6.95;4.32;;;;;;;9.62;73.89;99037.09;5016543;28;20057;-92
2020/12/15 05:55:27;;;;;;;4.78;4.07;;;;;;;9.66;73.77;99041.22;5016431;28;20053;-92
2020/12/15 05:57:55;;;;;;;6.03;4.38;;;;;;;9.67;73.88;99032.38;5010230;28;20492;-92
2020/12/15 06:00:25;;;;;;;4.45;3.92;;;;;;;9.68;74.06;99039.31;4996181;28;20057;-92
2020/12/15 06:03:00;;;;;;;5.85;4.25;;;;;;;9.67;74.01;99035.00;4997059;28;20501;-91
2020/12/15 06:05:37;;;;;;;4.40;3.88;;;;;;;9.67;74.13;99027.13;4996759;28;20074;-92
2020/12/15 06:08:05;;;;;;;9.73;4.55;;;;;;;9.71;74.01;99028.63;4996514;28;20050;-92
2020/12/15 06:10:32;;;;;;;8.48;4.53;;;;;;;9.73;74.09;99037.25;4996786;28;20057;-92
2020/12/15 06:13:00;;;;;;;5.40;4.03;;;;;;;9.75;74.05;99034.50;4996037;28;20046;-93
2020/12/15 06:15:27;;;;;;;8.15;4.60;;;;;;;9.73;73.95;99039.88;4995987;28;20047;-91
2020/12/15 06:17:59;;;;;;;5.10;4.60;;;;;;;9.73;74.21;99036.41;4996512;28;20053;-92
2020/12/15 06:20:34;;;;;;;7.05;4.90;;;;;;;9.72;74.45;99032.09;4996026;28;20062;-92
2020/12/15 06:23:01;;;;;;;5.10;4.32;;;;;;;9.75;74.27;99027.47;4994288;28;20064;-91
2020/12/15 06:25:30;;;;;;;6.25;4.80;;;;;;;9.76;74.33;99028.34;4995355;28;20046;-92
2020/12/15 06:28:10;;;;;;;7.47;4.82;;;;;;;9.73;74.44;99032.00;4996330;28;20050;-91
2020/12/15 06:30:41;;;;;;;7.20;4.72;;;;;;;9.75;74.34;99027.47;4995801;28;20523;-93
2020/12/15 06:33:17;;;;;;;7.03;4.43;;;;;;;9.78;74.36;99024.66;4997441;28;20056;-92
2020/12/15 06:35:47;;;;;;;6.07;4.90;;;;;;;9.78;74.57;99029.06;4996519;28;20046;-93
2020/12/15 06:38:19;;;;;;;6.20;4.65;;;;;;;9.80;74.42;99023.72;4996445;28;20047;-92
2020/12/15 06:40:47;;;;;;;7.20;4.50;;;;;;;9.82;74.34;99030.53;4996557;28;20142;-92
2020/12/15 06:43:30;;;;;;;5.30;4.45;;;;;;;9.82;74.62;99027.06;4994855;28;20059;-92
2020/12/15 06:46:04;;;;;;;6.43;4.82;;;;;;;9.84;74.68;99033.94;4995295;28;20050;-92
2020/12/15 06:48:34;;;;;;;6.07;5.03;;;;;;;9.86;74.39;99032.03;4996376;28;20497;-93
2020/12/15 06:51:00;;;;;;;6.20;4.28;;;;;;;9.89;74.33;99033.59;4997587;28;20057;-92
2020/12/15 06:53:26;;;;;;;6.60;5.13;;;;;;;9.89;74.43;99038.88;4996610;28;20050;-93
2020/12/15 06:56:01;;;;;;;6.43;4.60;;;;;;;9.88;74.61;99042.44;4996740;28;20055;-92
2020/12/15 06:58:27;;;;;;;5.10;4.40;;;;;;;9.91;74.57;99042.25;4995926;28;20050;-93
2020/12/15 07:00:54;;;;;;;6.57;4.78;;;;;;;9.91;74.43;99040.44;4995548;28;20050;-91
2020/12/15 07:03:45;;;;;;;6.82;4.95;;;;;;;9.89;74.93;99044.13;4995567;28;20050;-93
2020/12/15 07:06:15;;;;;;;6.13;5.03;;;;;;;9.91;74.77;99045.72;4999095;28;20497;-93
2020/12/15 07:08:42;;;;;;;8.25;5.35;;;;;;;9.93;74.45;99052.63;4996526;28;20068;-92
2020/12/15 07:11:09;;;;;;;6.20;5.18;;;;;;;9.92;74.41;99043.94;4996655;28;20058;-91
2020/12/15 07:13:35;;;;;;;8.25;5.65;;;;;;;9.93;74.69;99050.88;4996042;28;20096;-93
2020/12/15 07:16:01;;;;;;;6.50;5.20;;;;;;;9.95;74.54;99056.03;4995100;28;20050;-93
2020/12/15 07:18:34;;;;;;;7.32;5.30;;;;;;;9.94;74.58;99060.44;4995203;28;20050;-92
2020/12/15 07:21:02;;;;;;;7.68;5.53;;;;;;;9.97;74.50;99059.38;4996837;28;20054;-90
2020/12/15 07:23:43;;;;;;;7.15;5.70;;;;;;;9.98;74.55;99056.66;4997582;28;20145;-90
2020/12/15 07:26:17;;;;;;;7.95;5.97;;;;;;;9.97;74.78;99060.25;4996432;28;20043;-93
2020/12/15 07:28:46;;;;;;;8.60;6.30;;;;;;;9.98;74.42;99061.09;4995046;28;20058;-93
2020/12/15 07:31:12;;;;;;;9.13;5.45;;;;;;;9.99;74.40;99063.59;4995682;28;20072;-91
2020/12/15 07:33:41;;;;;;;8.80;5.53;;;;;;;9.98;74.50;99069.81;4996859;28;20504;-92
2020/12/15 07:36:17;;;;;;;7.15;5.13;;;;;;;9.96;74.55;99066.44;4995167;28;20425;-93
2020/12/15 07:38:45;;;;;;;7.55;5.43;;;;;;;9.99;74.53;99063.59;4996543;28;20076;-93
2020/12/15 07:41:15;;;;;;;8.27;5.82;;;;;;;9.98;74.55;99061.09;4995452;28;20057;-93
2020/12/15 07:43:52;;;;;;;10.82;6.47;;;;;;;9.95;74.44;99062.16;4996417;28;20054;-90
2020/12/15 07:46:19;;;;;;;8.00;5.95;;;;;;;9.97;74.60;99057.63;4995656;28;20488;-92
2020/12/15 07:48:46;;;;;;;10.13;6.30;;;;;;;9.96;74.65;99063.81;4994886;28;20412;-92
2020/12/15 07:51:12;;;;;;;7.72;5.75;;;;;;;9.95;74.96;99062.16;4997787;28;20058;-90
2020/12/15 07:53:49;;;;;;;8.15;6.10;;;;;;;9.95;74.65;99061.28;4995108;28;20054;-93
2020/12/15 07:56:16;;;;;;;11.90;6.18;;;;;;;9.97;74.61;99052.34;4995902;28;20489;-93
2020/12/15 07:58:44;;;;;;;13.63;5.95;;;;;;;9.99;74.48;99054.88;4999431;28;20061;-92
2020/12/15 08:01:11;;;;;;;7.15;6.15;;;;;;;9.98;74.78;99064.53;4995627;28;20058;-93
2020/12/15 08:03:37;;;;;;;8.23;5.88;;;;;;;9.99;74.79;99068.84;4995987;28;20085;-92
2020/12/15 08:06:08;;;;;;;6.93;5.63;;;;;;;10.00;74.70;99072.34;4997548;28;20065;-91
2020/12/15 08:08:35;;;;;;;10.43;6.47;;;;;;;10.01;74.62;99077.50;4995375;28;20058;-93
2020/12/15 08:11:01;;;;;;;8.70;6.30;;;;;;;10.00;74.87;99081.09;4996685;28;20502;-91
2020/12/15 08:13:28;;;;;;;8.38;6.13;;;;;;;10.03;74.76;99069.50;4995579;28;20054;-92
2020/12/15 08:15:54;;;;;;;9.68;6.90;;;;;;;10.03;74.78;99077.41;4994102;28;20047;-91
2020/12/15 08:18:21;;;;;;;7.68;6.40;;;;;;;10.03;74.67;99070.34;4996173;28;20133;-93
2020/12/15 08:20:53;;;;;;;7.07;6.38;;;;;;;10.02;74.79;99067.84;4995374;28;20046;-89
2020/12/15 08:23:22;;;;;;;8.27;6.20;;;;;;;10.03;74.68;99075.59;4993601;28;20053;-91
2020/12/15 08:25:48;;;;;;;7.30;5.82;;;;;;;10.04;74.60;99084.34;4994371;28;20053;-91
2020/12/15 08:28:24;;;;;;;9.52;6.25;;;;;;;10.04;74.74;99086.97;4995436;28;20054;-91
2020/12/15 08:30:55;;;;;;;8.10;6.53;;;;;;;10.06;74.76;99086.88;4994500;28;20050;-91
2020/12/15 08:33:21;;;;;;;8.75;6.35;;;;;;;10.06;74.80;99087.72;4994850;28;20050;-89
2020/12/15 08:35:49;;;;;;;10.05;7.00;;;;;;;10.08;74.86;99087.59;4993406;28;20046;-91
2020/12/15 08:38:16;;;;;;;7.95;6.22;;;;;;;10.07;74.80;99088.56;4994428;28;20050;-90
2020/12/15 08:40:44;;;;;;;13.82;6.20;;;;;;;10.06;74.77;99094.75;4994677;28;20061;-92
2020/12/15 08:43:10;;;;;;;11.38;7.25;;;;;;;10.08;74.81;99093.72;4993338;28;20448;-92
2020/12/15 08:45:37;;;;;;;7.70;5.97;;;;;;;10.07;74.57;99084.16;4993258;28;20058;-91
2020/12/15 08:48:03;;;;;;;10.60;6.97;;;;;;;10.09;74.89;99094.56;4996515;28;20057;-91
2020/12/15 08:50:31;;;;;;;8.73;6.63;;;;;;;10.10;74.90;99093.63;4998506;28;20050;-91
2020/12/15 08:53:15;;;;;;;8.32;6.20;;;;;;;10.11;74.92;99097.94;4998222;28;20054;-90
2020/12/15 08:55:43;;;;;;;9.32;6.65;;;;;;;10.11;74.88;99090.91;4998984;28;20058;-92
2020/12/15 08:58:10;;;;;;;9.75;6.20;;;;;;;10.13;75.00;99093.44;4998953;28;20421;-91
2020/12/15 09:00:40;;;;;;;8.90;6.32;;;;;;;10.15;75.07;99094.16;4997879;28;20054;-92
2020/12/15 09:03:14;;;;;;;8.93;6.35;;;;;;;10.15;74.96;99094.16;4997555;28;20061;-91
2020/12/15 09:05:54;;;;;;;9.85;6.90;;;;;;;10.15;75.02;99094.16;4997396;28;20046;-91
2020/12/15 09:08:25;;;;;;;7.80;6.25;;;;;;;10.19;75.11;99103.53;4998249;28;20050;-92
2020/12/15 09:10:55;;;;;;;8.95;7.07;;;;;;;10.21;75.27;99099.00;4997333;28;20057;-91
2020/12/15 09:13:22;;;;;;;11.23;7.28;;;;;;;10.24;74.96;99108.50;4997836;28;20508;-90
2020/12/15 09:15:54;;;;;;;8.93;6.85;;;;;;;10.25;75.42;99111.00;4998367;28;20054;-91
2020/12/15 09:18:37;;;;;;;8.57;6.30;;;;;;;10.27;75.34;99113.53;4998668;28;20051;-91
2020/12/15 09:21:18;;;;;;;8.97;6.67;;;;;;;10.32;75.46;99118.50;4997468;28;20050;-91
2020/12/15 09:23:48;;;;;;;11.30;7.70;;;;;;;10.35;75.50;99119.13;4996501;28;20153;-92
2020/12/15 09:26:14;;;;;;;7.55;6.25;;;;;;;10.38;75.48;99124.19;4998452;28;20050;-92
2020/12/15 09:28:41;;;;;;;10.05;6.63;;;;;;;10.41;75.38;99131.03;4997930;28;20077;-90
2020/12/15 09:31:07;;;;;;;9.05;7.00;;;;;;;10.43;75.36;99129.13;4996312;28;20074;-91
2020/12/15 09:33:33;;;;;;;8.00;6.18;;;;;;;10.45;75.19;99137.81;4996201;28;20060;-90
2020/12/15 09:36:00;;;;;;;8.75;6.35;;;;;;;10.47;75.27;99146.44;4997629;28;20385;-91
2020/12/15 09:38:26;;;;;;;9.80;7.15;;;;;;;10.48;75.35;99134.13;4996449;28;20062;-91
2020/12/15 09:40:52;;;;;;;8.40;6.78;;;;;;;10.49;75.19;99139.31;4996866;28;20054;-92
2020/12/15 09:43:18;;;;;;;8.18;6.13;;;;;;;10.50;75.29;99133.09;4998360;28;20062;-92
2020/12/15 09:45:49;;;;;;;7.97;5.97;;;;;;;10.53;75.40;99132.88;4997806;28;20046;-93
2020/12/15 09:48:15;;;;;;;9.65;6.97;;;;;;;10.53;75.20;99146.03;4999084;28;20050;-91
2020/12/15 09:50:42;;;;;;;11.18;6.65;;;;;;;10.55;75.24;99151.22;4998500;28;20058;-92
2020/12/15 09:53:08;;;;;;;10.07;6.25;;;;;;;10.57;75.26;99149.31;4999910;28;20050;-92
2020/12/15 09:55:35;;;;;;;9.30;6.18;;;;;;;10.58;75.28;99139.63;4999282;28;20053;-92
2020/12/15 09:58:01;;;;;;;9.95;6.55;;;;;;;10.59;75.27;99142.16;4998799;28;20050;-92
2020/12/15 10:00:29;;;;;;;9.00;6.88;;;;;;;10.59;75.29;99144.81;4997376;28;20511;-91
2020/12/15 10:02:56;;;;;;;9.30;6.75;;;;;;;10.60;75.36;99146.47;4996276;28;20515;-92
2020/12/15 10:05:23;;;;;;;10.13;6.82;;;;;;;10.62;75.18;99154.28;4998526;28;20137;-92
2020/12/15 10:07:49;;;;;;;9.75;7.20;;;;;;;10.62;75.14;99163.00;4997950;28;20489;-91
2020/12/15 10:10:16;;;;;;;8.68;6.47;;;;;;;10.63;75.25;99161.22;4999297;28;20050;-93
2020/12/15 10:12:45;;;;;;;9.63;6.72;;;;;;;10.63;75.35;99171.75;4997980;28;20077;-91
2020/12/15 10:15:12;;;;;;;9.88;7.15;;;;;;;10.62;75.23;99165.63;4997841;28;20050;-92
2020/12/15 10:17:39;;;;;;;14.45;7.38;;;;;;;10.63;75.41;99171.75;4996397;28;20129;-92
2020/12/15 10:20:06;;;;;;;8.07;7.18;;;;;;;10.64;75.42;99174.28;4995306;28;20386;-92
2020/12/15 10:22:32;;;;;;;11.35;7.03;;;;;;;10.64;75.34;99173.41;4994450;28;20054;-91
2020/12/15 10:24:58;;;;;;;9.82;6.75;;;;;;;10.64;75.30;99171.66;4995834;28;20046;-91
2020/12/15 10:27:25;;;;;;;10.10;7.78;;;;;;;10.66;75.44;99167.09;4995027;28;20054;-92
2020/12/15 10:29:51;;;;;;;9.10;6.72;;;;;;;10.67;75.43;99174.09;4995813;28;20086;-89
2020/12/15 10:32:17;;;;;;;11.60;7.82;;;;;;;10.67;75.35;99163.56;4994434;28;20397;-91
2020/12/15 10:34:45;;;;;;;11.32;7.47;;;;;;;10.69;75.25;99169.53;4994378;28;20598;-91
2020/12/15 10:37:12;;;;;;;8.80;7.10;;;;;;;10.71;75.41;99176.50;4994676;28;20057;-91
2020/12/15 10:39:39;;;;;;;10.13;8.00;;;;;;;10.70;75.50;99178.28;4994893;28;20054;-91
2020/12/15 10:42:05;;;;;;;10.80;7.70;;;;;;;10.72;75.18;99184.28;4994997;28;20461;-91
2020/12/15 10:44:31;;;;;;;11.27;7.85;;;;;;;10.72;75.29;99181.66;4994598;28;20482;-91
2020/12/15 10:47:00;;;;;;;11.15;7.50;;;;;;;10.74;75.26;99176.28;4995258;28;20108;-91
2020/12/15 10:49:27;;;;;;;9.20;7.85;;;;;;;10.78;75.36;99189.16;4995486;28;20077;-91
2020/12/15 10:51:54;;;;;;;12.48;8.98;;;;;;;10.79;75.25;99185.56;4994454;28;20047;-91
2020/12/15 10:54:20;;;;;;;11.10;8.00;;;;;;;10.82;75.15;99190.63;4994395;28;20061;-91
2020/12/15 10:56:46;;;;;;;10.02;8.07;;;;;;;10.81;75.33;99186.28;4994137;28;20133;-91
2020/12/15 10:59:12;;;;;;;12.93;9.63;;;;;;;10.82;75.21;99188.00;4994974;28;20046;-91
2020/12/15 11:01:38;;;;;;;11.00;7.85;;;;;;;10.84;75.09;99179.97;4994181;28;20413;-91
2020/12/15 11:04:05;;;;;;;9.63;7.75;;;;;;;10.85;75.23;99189.59;4995274;28;20416;-91
2020/12/15 11:06:35;;;;;;;10.20;8.40;;;;;;;10.87;75.37;99186.84;4993883;28;20054;-91
2020/12/15 11:09:02;;;;;;;13.95;10.43;;;;;;;10.88;75.29;99185.91;4994768;28;20085;-91
2020/12/15 11:11:28;;;;;;;11.77;9.93;;;;;;;10.90;75.17;99189.25;4995028;28;20050;-91
2020/12/15 11:13:54;;;;;;;12.15;9.77;;;;;;;10.89;75.10;99184.94;4993867;28;20410;-91
2020/12/15 11:16:38;;;;;;;;;;;;;;;10.90;75.14;99191.88;4994592;28;20047;-91
2020/12/15 11:19:04;;;;;;;14.30;10.15;;;;;;;10.93;74.83;99179.38;4993611;28;20376;-91
2020/12/15 11:21:30;;;;;;;13.68;9.73;;;;;;;10.93;75.02;99182.00;4994785;28;20505;-91
2020/12/15 11:23:56;;;;;;;15.20;10.90;;;;;;;10.92;75.15;99185.56;4993900;28;20061;-91
2020/12/15 11:26:22;;;;;;;15.35;10.43;;;;;;;10.91;75.37;99178.63;4993655;28;20053;-91
2020/12/15 11:28:48;;;;;;;12.70;9.68;;;;;;;10.92;75.23;99192.66;4994921;28;20050;-91
2020/12/15 11:31:15;;;;;;;12.65;10.05;;;;;;;10.92;75.31;99179.47;4993619;28;20051;-91
2020/12/15 11:33:42;;;;;;;16.17;10.90;;;;;;;10.92;75.17;99176.84;4993381;28;20057;-91
2020/12/15 11:36:09;;;;;;;13.00;10.00;;;;;;;10.93;75.32;99174.13;4993511;28;20062;-91
2020/12/15 11:38:39;;;;;;;11.70;9.40;;;;;;;10.95;75.32;99171.34;4993229;28;20616;-91
2020/12/15 11:41:06;;;;;;;9.45;8.30;;;;;;;10.98;75.45;99173.78;4993492;28;20053;-90
2020/12/15 11:43:32;;;;;;;10.45;8.63;;;;;;;11.00;75.35;99171.91;4993297;28;20054;-90